Weather History for KETC - September, 2013

Change the Weather History Date:

Sunday, September 8, 2013

  Actual Average Record
Temperature  
Mean Temperature 74 °F -  
Max Temperature 89 °F 85 °F 100 °F (1954)
Min Temperature 60 °F 61 °F 47 °F (1976)
Cooling Degree Days 9    
Growing Degree Days 24 (Base 50)    
Moisture  
Dew Point 63 °F    
Average Humidity 75    
Maximum Humidity 95    
Minimum Humidity 38    
Precipitation  
Precipitation 0.00 in - - ()
Sea Level Pressure  
Sea Level Pressure 29.95 in    
Wind  
Wind Speed 1 mph (WSW)    
Max Wind Speed 7 mph    
Max Gust Speed -    
Visibility 10 miles    
Events      
Averages and records for this station are not official NWS values.
T = Trace of Precipitation, MM = Missing Value Source: NWS Daily Summary

Daily Weather History Graph

Daily Weather History Graph

Search for Another Location

Airport or City:

Trip Planner

Search our weather history database for the weather conditions in past years. The results will help you decide how hot, cold, wet, or windy it might be!

Date:

Astronomy

Sep. 08, 2013 Rise Set
Actual Time 6:47 AM EDT 7:27 PM EDT
Civil Twilight 6:21 AM EDT 7:53 PM EDT
Nautical Twilight 5:51 AM EDT 8:23 PM EDT
Astronomical Twilight 5:19 AM EDT 8:54 PM EDT
Moon 9:55 AM EDT (9/8) 9:10 PM EDT (9/8)
Length of Visible Light 13h 31m
Length of Day
12h 39m
Waxing Crescent, 11% of the Moon is Illuminated
Sep 8
Waxing Crescent
Sep 12
First Quarter
Sep 19
Full
Sep 26
Last Quarter
Oct 4
New

Hourly Weather History & Observations

Time (EDT) Temp. Heat Index Dew Point Humidity Pressure Visibility Wind Dir Wind Speed Gust Speed Precip Events Conditions
12:15 AM 65.7 °F - 60.8 °F 84% 30.00 in 10.0 mi Calm Calm - N/A   Clear
12:35 AM 65.3 °F - 60.6 °F 85% 30.00 in 10.0 mi Calm Calm - N/A   Clear
12:55 AM 64.4 °F - 60.4 °F 87% 29.99 in 10.0 mi Calm Calm - N/A   Clear
1:15 AM 63.7 °F - 60.1 °F 88% 29.99 in 10.0 mi Calm Calm - N/A   Clear
1:35 AM 64.0 °F - 60.1 °F 87% 29.99 in 10.0 mi Calm Calm - N/A   Clear
1:55 AM 64.4 °F - 60.1 °F 86% 29.98 in 10.0 mi Calm Calm - N/A   Clear
2:15 AM 64.6 °F - 60.1 °F 85% 29.98 in 10.0 mi Calm Calm - N/A   Clear
2:35 AM 64.4 °F - 59.9 °F 85% 29.98 in 10.0 mi Calm Calm - N/A   Clear
2:55 AM 64.0 °F - 59.5 °F 85% 29.97 in 10.0 mi Calm Calm - N/A   Clear
3:15 AM 63.5 °F - 59.2 °F 86% 29.97 in 10.0 mi Calm Calm - N/A   Clear
3:35 AM 62.2 °F - 58.8 °F 89% 29.97 in 10.0 mi Calm Calm - N/A   Clear
3:55 AM 61.2 °F - 58.5 °F 91% 29.96 in 10.0 mi Calm Calm - N/A   Clear
4:15 AM 61.0 °F - 59.4 °F 94% 29.96 in 10.0 mi Calm Calm - N/A   Mostly Cloudy
4:35 AM 61.2 °F - 59.7 °F 95% 29.96 in 10.0 mi Calm Calm - N/A   Mostly Cloudy
4:55 AM 61.2 °F - 59.5 °F 94% 29.95 in 10.0 mi Calm Calm - N/A   Scattered Clouds
5:15 AM 61.2 °F - 59.4 °F 94% 29.95 in 10.0 mi Calm Calm - N/A   Clear
5:35 AM 61.2 °F - 59.4 °F 94% 29.95 in 10.0 mi Calm Calm - N/A   Clear
5:55 AM 61.2 °F - 59.2 °F 93% 29.95 in 10.0 mi Calm Calm - N/A   Clear
6:15 AM 61.0 °F - 59.0 °F 93% 29.95 in 10.0 mi Calm Calm - N/A   Clear
6:35 AM 60.8 °F - 59.2 °F 94% 29.95 in 10.0 mi Calm Calm - N/A   Clear
6:55 AM 61.0 °F - 59.2 °F 94% 29.96 in 10.0 mi Calm Calm - N/A   Clear
7:15 AM 60.8 °F - 59.0 °F 94% 29.96 in 10.0 mi Calm Calm - N/A   Clear
7:35 AM 61.9 °F - 59.9 °F 93% 29.95 in 10.0 mi Calm Calm - N/A   Clear
7:55 AM 63.9 °F - 61.0 °F 90% 29.95 in 10.0 mi Calm Calm - N/A   Clear
8:15 AM 66.2 °F - 61.9 °F 86% 29.95 in 10.0 mi Calm Calm - N/A   Clear
8:35 AM 68.4 °F - 62.6 °F 82% 29.95 in 10.0 mi Calm Calm - N/A   Clear
8:55 AM 70.3 °F - 63.0 °F 77% 29.95 in 10.0 mi SW 3.5 mph - N/A   Clear
9:15 AM 72.0 °F - 63.1 °F 74% 29.95 in 10.0 mi SW 3.5 mph - N/A   Clear
9:35 AM 73.2 °F - 63.9 °F 72% 29.95 in 10.0 mi West 3.5 mph - N/A   Clear
9:55 AM 74.3 °F - 64.2 °F 71% 29.95 in 10.0 mi West 3.5 mph - N/A   Clear
10:15 AM 75.7 °F - 64.8 °F 69% 29.95 in 10.0 mi Calm Calm - N/A   Clear
10:35 AM 76.8 °F - 65.1 °F 67% 29.95 in 10.0 mi West 3.5 mph - N/A   Clear
10:55 AM 77.5 °F - 65.3 °F 66% 29.95 in 10.0 mi Calm Calm - N/A   Clear
11:15 AM 79.0 °F - 66.0 °F 64% 29.95 in 10.0 mi Calm Calm - N/A   Clear
11:35 AM 79.7 °F - 66.0 °F 63% 29.95 in 10.0 mi Calm Calm - N/A   Clear
11:55 AM 80.8 °F 82.9 °F 66.4 °F 61% 29.94 in 10.0 mi Calm Calm - N/A   Clear
12:15 PM 82.0 °F 84.3 °F 66.2 °F 59% 29.94 in 10.0 mi SSW 3.5 mph - N/A   Clear
12:35 PM 82.9 °F 85.6 °F 67.1 °F 59% 29.93 in 10.0 mi WSW 4.6 mph - N/A   Clear
12:55 PM 83.5 °F 86.2 °F 67.5 °F 58% 29.92 in 10.0 mi South 3.5 mph - N/A   Clear
1:15 PM 84.7 °F 87.4 °F 67.1 °F 55% 29.92 in 10.0 mi SSW 3.5 mph - N/A   Clear
1:35 PM 85.5 °F 87.4 °F 65.3 °F 51% 29.92 in 10.0 mi NW 4.6 mph - N/A   Clear
1:55 PM 86.2 °F 87.1 °F 63.1 °F 46% 29.92 in 10.0 mi Calm Calm - N/A   Clear
2:15 PM 86.5 °F 87.3 °F 62.8 °F 45% 29.91 in 10.0 mi West 4.6 mph - N/A   Clear
2:35 PM 86.9 °F 88.3 °F 64.2 °F 47% 29.90 in 10.0 mi SW 3.5 mph - N/A   Clear
2:55 PM 87.4 °F 88.2 °F 63.3 °F 44% 29.90 in 10.0 mi WSW 6.9 mph - N/A   Scattered Clouds
3:15 PM 88.0 °F 87.6 °F 60.4 °F 39% 29.90 in 10.0 mi West 4.6 mph - N/A   Clear
3:35 PM 88.2 °F 87.6 °F 59.5 °F 38% 29.90 in 10.0 mi Calm Calm - N/A   Clear
3:55 PM 88.2 °F 87.8 °F 60.1 °F 39% 29.90 in 10.0 mi WSW 3.5 mph - N/A   Clear
4:15 PM 88.2 °F 87.8 °F 60.1 °F 39% 29.90 in 10.0 mi West 4.6 mph - N/A   Clear
4:35 PM 88.3 °F 88.6 °F 61.9 °F 41% 29.90 in 10.0 mi NW 5.8 mph - N/A   Mostly Cloudy
4:55 PM 88.0 °F 88.1 °F 61.5 °F 41% 29.90 in 10.0 mi West 3.5 mph - N/A   Mostly Cloudy
5:15 PM 87.4 °F 87.7 °F 62.1 °F 42% 29.90 in 10.0 mi Calm Calm - N/A   Scattered Clouds
5:35 PM 87.3 °F 87.7 °F 62.2 °F 43% 29.90 in 10.0 mi WNW 3.5 mph - N/A   Scattered Clouds
5:55 PM 86.4 °F 87.0 °F 63.0 °F 45% 29.90 in 10.0 mi Calm Calm - N/A   Clear
6:15 PM 84.6 °F 87.1 °F 66.7 °F 55% 29.90 in 10.0 mi Calm Calm - N/A   Clear
6:35 PM 84.0 °F 87.0 °F 67.8 °F 58% 29.91 in 10.0 mi Calm Calm - N/A   Clear
6:55 PM 82.4 °F 85.6 °F 68.7 °F 63% 29.91 in 10.0 mi Calm Calm - N/A   Clear
7:15 PM 79.5 °F - 71.2 °F 76% 29.92 in 5.0 mi Calm Calm - N/A   Haze
7:35 PM 76.5 °F - 70.7 °F 82% 29.92 in 10.0 mi Calm Calm - N/A   Clear
7:55 PM 74.1 °F - 70.7 °F 89% 29.92 in 10.0 mi Calm Calm - N/A   Clear
8:15 PM 72.3 °F - 69.8 °F 92% 29.93 in 10.0 mi Calm Calm - N/A   Clear
8:35 PM 70.7 °F - 68.5 °F 93% 29.94 in 10.0 mi Calm Calm - N/A   Clear
8:55 PM 70.2 °F - 68.0 °F 93% 29.95 in 10.0 mi Calm Calm - N/A   Clear
9:15 PM 69.8 °F - 67.5 °F 92% 29.95 in 5.0 mi Calm Calm - N/A   Clear
9:35 PM 69.3 °F - 67.3 °F 93% 29.96 in 5.0 mi Calm Calm - N/A   Clear
9:55 PM 68.7 °F - 66.9 °F 94% 29.97 in 1.8 mi Calm Calm - N/A   Mist
10:15 PM 68.7 °F - 66.9 °F 94% 29.97 in 10.0 mi Calm Calm - N/A   Clear
10:35 PM 68.5 °F - 66.6 °F 93% 29.98 in 7.0 mi Calm Calm - N/A   Clear
10:55 PM 68.2 °F - 66.2 °F 93% 29.98 in 7.0 mi Calm Calm - N/A   Clear
11:15 PM 67.8 °F - 65.8 °F 93% 29.99 in 7.0 mi Calm Calm - N/A   Clear
11:35 PM 66.9 °F - 65.1 °F 94% 29.99 in 7.0 mi Calm Calm - N/A   Clear
11:55 PM 67.3 °F - 65.5 °F 94% 29.99 in 7.0 mi Calm Calm - N/A   Clear